Hackberry Slope, NM

10:59 AM MST on December 02, 2016 (GMT -0700)
2.1 NNW Downtown Carlsbad, NM | | Change Station

Elev 3158 ft 32.43 °N, 104.25 °W | Updated 19 seconds ago

Partly Cloudy
Partly Cloudy
47.1 °F
Feels Like 47 °F
N
2.0
Wind Variable Wind from NW
Gusts 12.0 mph

Today
High -- | Low -- °F
--% Chance of Precip.
Yesterday
High -- | Low -- °F
Precip. -- in
Pressure 29.99 in
Visibility 10.0 miles
Clouds Few 2100 ft
Windchill 47 °F
Dew Point 24 °F
Humidity 40%
Rainfall 0.00 in
Snow Depth Not available.
6:42 AM 4:51 PM
Waxing Crescent, 9% visible
METAR KCNM 021753Z AUTO 33013KT 10SM FEW021 08/M05 A3002 RMK AO2 SLP156 T00781050 10083 20006 58001 TSNO
Pressure 29.99 in
Visibility 10.0 miles
Clouds Few 2100 ft
Windchill 47 °F
Dew Point 24 °F
Humidity 40%
Rainfall 0.00 in
Snow Depth Not available.
6:42 AM 4:51 PM
Waxing Crescent, 9% visible
METAR KCNM 021753Z AUTO 33013KT 10SM FEW021 08/M05 A3002 RMK AO2 SLP156 T00781050 10083 20006 58001 TSNO

10-Day Weather Forecast

Almanac

Astronomy

Dec. 02, 2016 Rise Set
Actual Time
Civil Twilight
Nautical Twilight
Astronomical Twilight
Moon
Length of Visible Light
Length of Day
Tomorrow will be .
, % of the Moon is Illuminated

Today's Extremes

State Highs State Lows

Community

WunderPhotos

Upload Photos

1,955,332 photos uploaded!

WunderBlog® & News

Nearby

Air Quality

  Air Quality AQ Index Pollutant
Not available.

Snow Depth

Station Depth Elevation

Earthquake Activity

City Distance Mag. Time & Date
Minimum magnitude displayed is 2.5.

Coastal Water Temperatures

Place Temperature

Stations

Nearby Weather Stations

Station Location Temp. Windchill Dew Point Humidity Wind Precip. Elev Updated Type
                   

Watches & Warnings

There are currently no watches in effect.